Aérodrome :
LOGIN :

S'inscrire | Disclaimer

   EN    FR    IT 

 










Légende :    VFR   VFR Marginal   IFR   IFR Intensif   IFR Très Intensif
Visi : 
Plafond : 
>= 8 km
>= 3000ft
5 à 8 km
1000 à 3000 ft
1500m à 5 km
500 à 1000 ft
800 à 1500m
200 à 500 ft
< 800m
< 200 ft
Symboles :   Orages  Brouillard  Fortes neiges  Fortes précipitations  Vent > 20 kt
SIGMETs :   Divers  Orages  Givrage  Turbulence  Onde Orograph.  Cendres Volcan.






- Altitude de l'aérodrome : 1267 ft
- Code IATA : CUF


LIMZ - Cuneo Levaldigi

DERNIER METAR :
  • 202050Z AUTO 28002KT 7000 FEW045/// BKN059/// BKN210/// 00/M01 Q1017

METARs EXPIRÉS :
  • 202020Z AUTO 28001KT 7000 SCT059/// BKN200/// M00/M01 Q1018
  • 201950Z AUTO 22002KT 8000 FEW062/// BKN071/// BKN210/// M00/M01 Q1018
  • 201920Z AUTO VRB01KT 8000 FEW051/// BKN220/// 00/M01 Q1018
  • 201850Z AUTO 18003KT 7000 BKN210/// M01/M02 Q1018

TAF TAF LIMZ
Valide du 20 à 18h jusqu'au 21 à 18h UTC


201737Z 2018/2118 VRB03KT 6000 BKN048
BECMG 2020/2108 3000 BR BKN010
TEMPO 2100/2106 1200 SN



MET'MAP, la Météo Aéronautique d'un coup d'oeil ! - Copyright ORBIFLY Décembre 2007 - Disclaimer

ORBIFLY MET'MAP TEAM :

Programmation & Développement : Alexandra Zaïnal
Sur une idée originale de : Baudouin d'Aumeries
Assistance à la programmation : Marc-Olivier Méhu
Soutien technique & logistique : Manuel Goepfert

Contact : metmap@orbifly.com




SOURCES & CREDITS :

   NOAA